Private Wetterstation Nrnberg - Katzwang
Wetterdaten: Juni 2014
Datum Temp. A. Feuchte A. Luftdruck Regen Wind Richtung Taupunkt Windchill Windben
01.06.2014 15,1 C 65 % 1016 hPa 0,0 l/m 3,1 km/h NO 8,3 C 14,5 C 4,1 km/h
02.06.2014 15,2 C 69 % 1015 hPa 1,0 l/m 0,0 km/h O 9,2 C 15,2 C 1,0 km/h
03.06.2014 16,7 C 64 % 1012 hPa 0,0 l/m 1,9 km/h W-NW 9,4 C 16,6 C 2,9 km/h
04.06.2014 17,7 C 68 % 1007 hPa 3,1 l/m 3,4 km/h O 11,1 C 17,5 C 4,4 km/h
05.06.2014 16,9 C 60 % 1013 hPa 0,0 l/m 0,0 km/h W-NW 8,7 C 16,9 C 1,0 km/h
06.06.2014 20,3 C 57 % 1014 hPa 0,0 l/m 0,9 km/h O 10,7 C 20,3 C 1,9 km/h
07.06.2014 23,8 C 55 % 1014 hPa 0,0 l/m 0,7 km/h NO 13,5 C 23,8 C 1,7 km/h
08.06.2014 26,2 C 51 % 1016 hPa 0,0 l/m 4,6 km/h O-NO 14,3 C 26,2 C 7,3 km/h
09.06.2014 27,5 C 48 % 1015 hPa 0,0 l/m 1,0 km/h O 14,2 C 27,5 C 2,0 km/h
10.06.2014 26,5 C 51 % 1016 hPa 0,0 l/m 2,7 km/h N-NO 14,9 C 26,5 C 3,7 km/h
11.06.2014 25,5 C 60 % 1020 hPa 0,5 l/m 9,2 km/h N 16,9 C 24,7 C 10,2 km/h
12.06.2014 22,8 C 63 % 1020 hPa 0,0 l/m 3,3 km/h NO 15,2 C 22,8 C 4,3 km/h
13.06.2014 20,8 C 54 % 1016 hPa 0,0 l/m 7,7 km/h N-NO 10,8 C 19,6 C 12,8 km/h
14.06.2014 17,6 C 54 % 1015 hPa 0,0 l/m 7,3 km/h N-NO 7,7 C 16,5 C 8,3 km/h
15.06.2014 17,7 C 58 % 1017 hPa 0,0 l/m 8,9 km/h N-NO 9,0 C 16,5 C 9,9 km/h
16.06.2014 18,0 C 56 % 1016 hPa 0,0 l/m 3,8 km/h N-NO 8,6 C 17,9 C 4,8 km/h
17.06.2014 16,7 C 69 % 1015 hPa 9,3 l/m 1,0 km/h N-NO 10,4 C 16,7 C 2,0 km/h
18.06.2014 19,5 C 56 % 1015 hPa 0,0 l/m 1,7 km/h N-NO 10,0 C 19,4 C 2,7 km/h
19.06.2014 19,4 C 56 % 1014 hPa 0,0 l/m 3,9 km/h W-NW 10,1 C 19,0 C 4,9 km/h
20.06.2014 16,2 C 63 % 1014 hPa 1,0 l/m 4,3 km/h W-NW 8,9 C 16,2 C 5,3 km/h
21.06.2014 16,9 C 58 % 1015 hPa 0,0 l/m 0,0 km/h W-NW 8,2 C 16,9 C 1,0 km/h
22.06.2014 18,5 C 54 % 1017 hPa 0,0 l/m 7,2 km/h N-NO 8,4 C 17,6 C 8,2 km/h
23.06.2014 19,6 C 51 % 1016 hPa 0,0 l/m 4,4 km/h NO 8,5 C 19,2 C 5,4 km/h
24.06.2014 20,6 C 49 % 1012 hPa 0,0 l/m 1,0 km/h NO 9,0 C 20,6 C 2,0 km/h
25.06.2014 16,3 C 60 % 1010 hPa 0,5 l/m 2,0 km/h W-NW 8,5 C 16,1 C 3,0 km/h
26.06.2014 17,8 C 53 % 1012 hPa 0,0 l/m 1,5 km/h NO 7,6 C 17,8 C 2,5 km/h
27.06.2014 21,2 C 49 % 1012 hPa 0,0 l/m 0,5 km/h N-NO 9,2 C 21,2 C 1,5 km/h
28.06.2014 20,3 C 66 % 1009 hPa 3,1 l/m 1,9 km/h N 13,2 C 20,3 C 2,9 km/h
29.06.2014 17,3 C 75 % 1007 hPa 3,6 l/m 2,9 km/h W-NW 12,9 C 16,8 C 3,9 km/h
30.06.2014 16,0 C 73 % 1012 hPa 1,6 l/m 4,1 km/h W-NW 11,1 C 16,0 C 5,1 km/h
Min-Datum 02.06.14 09.06.14 04.06.14 9 Tage 01.06.14 - 26.06.14 03.06.14 01.06.14
Min-Zeit 05:40 14:30 16:20 - 00:00 - 06:00 07:00 00:00
Minimum 8,1 C 26 % 1005 hPa - 0,0 km/h - 4,1 C 8,1 C 1,0 km/h
Max-Datum 09.06.14 03.06.14 12.06.14 17.06.14 17.06.14 - 11.06.14 09.06.14 17.06.14
Max-Zeit 14:30 06:00 08:20 16:50 16:20 - 13:50 14:30 16:20
Maximum 36,3 C 82 % 1023 hPa 9,3 l/m 26,0 km/h
N-NO
- 20,4 C 36,3 C 41,4 km/h
N-NO
Durchschnitt 19,5 C 59 % 1014 hPa #23,8 l/m 3,2 km/h N-NO 10,6 C 19,2 C 4,4 km/h

Durchschnitt Minimum Temp.12,6 C
Durchschnitt Maximum Temp.25,6 C